KLOU/LOU METAR and TAF weather

Enter ICAO airport designator
Station Type Date Time Source
KLOU METAR 2021/09/23 22:53 UTC NOAA

KLOU 232253Z 29009KT 10SM CLR 19/05 A3001 RMK AO2 SLP161 T01890050


Station Type Date Time Source
KLOU Decoded METAR 2021/09/23 22:53 UTC NOAA

BOWMAN FIELD, KY, United States (KLOU) 38-14N 085-40W 164M
Sep 23, 2021 - 06:53 PM EDT / 2021.09.23 2253 UTC
Wind: from the WNW (290 degrees) at 10 MPH (9 KT):0
Visibility: 10 mile(s):0
Sky conditions: clear
Temperature: 66.0 F (18.9 C)
Dew Point: 41.0 F (5.0 C)
Relative Humidity: 39%
Pressure (altimeter): 30.01 in. Hg (1016 hPa)
ob: KLOU 232253Z 29009KT 10SM CLR 19/05 A3001 RMK AO2 SLP161 T01890050
cycle: 23

Station Type Date Time Source
KLOU TAF UTC NOAA

Error!

Example: see airport list